Time;durP1;ratioP1;P1;durP2;ratioP2;P2;SDS_P1;SDS_P2;PMS_P1;PMS_P2;Temp;Humidity;BMP_temperature;BMP_pressure;BME280_temperature;BME280_humidity;BME280_pressure;Samples;Min_cycle;Max_cycle;Signal;HPM_P1;HPM_P2
2023/12/18 00:00:13;;;;;;;10.67;9.37;;;;;;;;;;5114063;28;20412;-72
2023/12/18 00:02:41;;;;;;;10.07;8.77;;;;;;;;;;5113892;28;20418;-72
2023/12/18 00:05:08;;;;;;;12.27;9.50;;;;;;;;;;5113581;28;20459;-72
2023/12/18 00:07:34;;;;;;;12.37;10.90;;;;;;;;;;5113646;28;20478;-72
2023/12/18 00:10:00;;;;;;;20.30;15.30;;;;;;;;;;5113540;28;20408;-72
2023/12/18 00:12:26;;;;;;;11.20;9.70;;;;;;;;;;5113787;28;20412;-72
2023/12/18 00:14:52;;;;;;;10.60;8.60;;;;;;;;;;5113951;28;20760;-72
2023/12/18 00:17:18;;;;;;;10.90;8.00;;;;;;;;;;5113598;28;20418;-72
2023/12/18 00:19:44;;;;;;;10.20;7.90;;;;;;;;;;5113626;28;20784;-72
2023/12/18 00:22:10;;;;;;;12.00;8.60;;;;;;;;;;5113938;28;20411;-72
2023/12/18 00:24:36;;;;;;;9.03;8.33;;;;;;;;;;5113849;28;20742;-72
2023/12/18 00:27:02;;;;;;;8.80;7.70;;;;;;;;;;5113308;28;20463;-72
2023/12/18 00:29:28;;;;;;;10.47;8.00;;;;;;;;;;5113767;28;20483;-72
2023/12/18 00:31:54;;;;;;;7.87;7.07;;;;;;;;;;5113699;28;20435;-72
2023/12/18 00:34:20;;;;;;;11.03;8.27;;;;;;;;;;5113390;28;20463;-72
2023/12/18 00:36:46;;;;;;;7.43;6.60;;;;;;;;;;5113343;28;20404;-72
2023/12/18 00:39:15;;;;;;;9.33;7.40;;;;;;;;;;5113318;28;20507;-72
2023/12/18 00:41:41;;;;;;;8.57;7.23;;;;;;;;;;5113387;28;20407;-72
2023/12/18 00:44:07;;;;;;;11.70;8.67;;;;;;;;;;5113294;28;20742;-72
2023/12/18 00:46:33;;;;;;;7.43;6.73;;;;;;;;;;5113345;28;20408;-72
2023/12/18 00:48:59;;;;;;;7.17;6.47;;;;;;;;;;5113447;28;20471;-72
2023/12/18 00:51:25;;;;;;;8.63;7.80;;;;;;;;;;5113554;28;20443;-72
2023/12/18 00:53:51;;;;;;;7.87;7.20;;;;;;;;;;5113543;28;20419;-72
2023/12/18 00:56:17;;;;;;;10.63;6.80;;;;;;;;;;5113672;28;20460;-72
2023/12/18 00:58:43;;;;;;;8.03;6.73;;;;;;;;;;5113703;28;20419;-72
2023/12/18 01:01:10;;;;;;;8.70;7.80;;;;;;;;;;5113424;28;20444;-72
2023/12/18 01:03:37;;;;;;;6.90;6.20;;;;;;;;;;5115721;28;20451;-72
2023/12/18 01:06:05;;;;;;;8.33;7.10;;;;;;;;;;5117229;28;20443;-72
2023/12/18 01:08:30;;;;;;;7.50;6.80;;;;;;;;;;5117112;28;20930;-73
2023/12/18 01:10:56;;;;;;;10.23;7.33;;;;;;;;;;5117235;28;20892;-72
2023/12/18 01:13:23;;;;;;;7.70;7.00;;;;;;;;;;5116940;28;20427;-73
2023/12/18 01:15:49;;;;;;;6.83;6.23;;;;;;;;;;5117212;28;20877;-72
2023/12/18 01:18:15;;;;;;;7.27;6.60;;;;;;;;;;5116891;28;20451;-72
2023/12/18 01:20:40;;;;;;;7.57;6.90;;;;;;;;;;5117182;28;20415;-72
2023/12/18 01:23:06;;;;;;;7.10;6.40;;;;;;;;;;5117132;28;20423;-72
2023/12/18 01:25:32;;;;;;;6.63;6.13;;;;;;;;;;5115460;28;20443;-72
2023/12/18 01:27:59;;;;;;;6.50;5.97;;;;;;;;;;5116951;28;20471;-72
2023/12/18 01:30:26;;;;;;;7.83;7.03;;;;;;;;;;5116647;28;20521;-72
2023/12/18 01:32:52;;;;;;;7.30;5.93;;;;;;;;;;5116985;28;20502;-72
2023/12/18 01:35:18;;;;;;;7.10;6.47;;;;;;;;;;5116601;28;20439;-72
2023/12/18 01:37:44;;;;;;;7.00;6.37;;;;;;;;;;5116569;28;20444;-72
2023/12/18 01:40:10;;;;;;;6.13;5.73;;;;;;;;;;5116657;28;20412;-72
2023/12/18 01:42:37;;;;;;;7.43;5.60;;;;;;;;;;5116724;28;20416;-72
2023/12/18 01:45:03;;;;;;;7.57;6.83;;;;;;;;;;5116346;28;20412;-72
2023/12/18 01:47:29;;;;;;;7.73;7.13;;;;;;;;;;5116833;28;20461;-72
2023/12/18 01:49:55;;;;;;;7.33;6.73;;;;;;;;;;5116648;28;20414;-72
2023/12/18 01:52:21;;;;;;;9.57;8.70;;;;;;;;;;5116309;28;20411;-72
2023/12/18 01:54:47;;;;;;;8.23;7.17;;;;;;;;;;5116675;28;20404;-72
2023/12/18 01:57:15;;;;;;;10.07;7.97;;;;;;;;;;5116434;28;20416;-72
2023/12/18 01:59:41;;;;;;;11.03;8.83;;;;;;;;;;5116169;28;20430;-72
2023/12/18 02:02:07;;;;;;;7.27;6.67;;;;;;;;;;5116295;28;20423;-72
2023/12/18 02:04:33;;;;;;;9.90;7.57;;;;;;;;;;5115866;28;20471;-72
2023/12/18 02:07:01;;;;;;;7.77;6.97;;;;;;;;;;5116455;28;20412;-72
2023/12/18 02:09:27;;;;;;;8.63;7.73;;;;;;;;;;5116291;28;20427;-72
2023/12/18 02:11:53;;;;;;;9.87;7.90;;;;;;;;;;5115826;28;20412;-72
2023/12/18 02:14:19;;;;;;;7.70;6.83;;;;;;;;;;5114887;28;20465;-72
2023/12/18 02:16:45;;;;;;;7.57;6.40;;;;;;;;;;5116102;28;20503;-72
2023/12/18 02:19:25;;;;;;;8.60;7.80;;;;;;;;;;5115954;28;20415;-72
2023/12/18 02:21:51;;;;;;;8.17;7.40;;;;;;;;;;5116032;28;20419;-73
2023/12/18 02:24:17;;;;;;;8.70;7.63;;;;;;;;;;5115592;28;20419;-72
2023/12/18 02:26:43;;;;;;;8.47;7.67;;;;;;;;;;5115811;28;20918;-72
2023/12/18 02:29:09;;;;;;;8.90;7.20;;;;;;;;;;5115596;28;20475;-72
2023/12/18 02:31:36;;;;;;;7.77;6.83;;;;;;;;;;5115632;28;20755;-72
2023/12/18 02:34:02;;;;;;;10.13;6.70;;;;;;;;;;5115430;28;20430;-72
2023/12/18 02:36:31;;;;;;;7.00;6.50;;;;;;;;;;5115435;28;20506;-72
2023/12/18 02:38:57;;;;;;;8.60;7.33;;;;;;;;;;5114057;28;20423;-72
2023/12/18 02:41:23;;;;;;;7.70;7.00;;;;;;;;;;5115277;28;20440;-72
2023/12/18 02:43:49;;;;;;;8.27;7.27;;;;;;;;;;5113954;28;20419;-72
2023/12/18 02:46:15;;;;;;;10.33;7.07;;;;;;;;;;5115577;28;20416;-72
2023/12/18 02:48:41;;;;;;;13.60;8.20;;;;;;;;;;5115122;28;20499;-72
2023/12/18 02:51:07;;;;;;;8.27;7.47;;;;;;;;;;5115379;28;20415;-72
2023/12/18 02:53:33;;;;;;;11.17;7.50;;;;;;;;;;5115023;28;20443;-72
2023/12/18 02:55:59;;;;;;;10.93;8.40;;;;;;;;;;5115202;28;20738;-72
2023/12/18 02:58:25;;;;;;;13.33;9.13;;;;;;;;;;5115002;28;20174;-72
2023/12/18 03:00:51;;;;;;;10.67;8.43;;;;;;;;;;5115476;28;20981;-72
2023/12/18 03:03:17;;;;;;;10.87;7.77;;;;;;;;;;5114956;28;20442;-72
2023/12/18 03:05:43;;;;;;;11.77;9.00;;;;;;;;;;5115139;28;20456;-72
2023/12/18 03:08:09;;;;;;;9.90;8.43;;;;;;;;;;5114747;28;20467;-72
2023/12/18 03:10:35;;;;;;;9.27;8.33;;;;;;;;;;5115056;28;20419;-72
2023/12/18 03:13:01;;;;;;;10.97;8.57;;;;;;;;;;5114646;28;20448;-72
2023/12/18 03:15:27;;;;;;;13.57;9.00;;;;;;;;;;5113517;28;20455;-72
2023/12/18 03:17:53;;;;;;;9.87;8.67;;;;;;;;;;5114929;28;20775;-73
2023/12/18 03:20:19;;;;;;;10.13;9.00;;;;;;;;;;5114533;28;20412;-72
2023/12/18 03:22:45;;;;;;;9.73;8.37;;;;;;;;;;5114807;28;20412;-72
2023/12/18 03:25:11;;;;;;;10.70;8.70;;;;;;;;;;5114561;28;20419;-72
2023/12/18 03:27:37;;;;;;;10.23;9.10;;;;;;;;;;5114368;28;20898;-72
2023/12/18 03:30:03;;;;;;;9.97;8.27;;;;;;;;;;5114379;28;20416;-72
2023/12/18 03:32:29;;;;;;;13.13;9.30;;;;;;;;;;5114591;28;20420;-72
2023/12/18 03:34:55;;;;;;;10.57;7.67;;;;;;;;;;5114510;28;20446;-72
2023/12/18 03:37:21;;;;;;;11.40;8.40;;;;;;;;;;5114228;28;20412;-72
2023/12/18 03:39:47;;;;;;;12.83;9.67;;;;;;;;;;5112919;28;20420;-72
2023/12/18 03:42:13;;;;;;;9.57;8.60;;;;;;;;;;5114298;28;20431;-72
2023/12/18 03:44:42;;;;;;;10.13;8.77;;;;;;;;;;5114139;28;20427;-72
2023/12/18 03:47:08;;;;;;;10.43;9.40;;;;;;;;;;5114280;28;20525;-73
2023/12/18 03:49:34;;;;;;;8.80;7.93;;;;;;;;;;5114024;28;20452;-72
2023/12/18 03:52:00;;;;;;;13.00;9.10;;;;;;;;;;5114003;28;20468;-72
2023/12/18 03:54:26;;;;;;;11.70;9.47;;;;;;;;;;5113913;28;20423;-72
2023/12/18 03:56:51;;;;;;;11.00;9.70;;;;;;;;;;5113852;28;20422;-72
2023/12/18 03:59:17;;;;;;;15.50;9.43;;;;;;;;;;5113907;28;20454;-72
2023/12/18 04:01:43;;;;;;;9.50;8.63;;;;;;;;;;5114094;28;20408;-72
2023/12/18 04:04:10;;;;;;;10.90;8.80;;;;;;;;;;5113626;28;20516;-72
2023/12/18 04:06:36;;;;;;;8.80;7.90;;;;;;;;;;5113807;28;20404;-73
2023/12/18 04:09:03;;;;;;;12.73;8.17;;;;;;;;;;5113903;28;20470;-72
2023/12/18 04:11:29;;;;;;;11.67;9.07;;;;;;;;;;5114527;28;20409;-72
2023/12/18 04:13:55;;;;;;;9.57;8.63;;;;;;;;;;5113556;28;20759;-72
2023/12/18 04:16:21;;;;;;;9.40;8.40;;;;;;;;;;5113984;28;20449;-72
2023/12/18 04:18:50;;;;;;;9.37;8.20;;;;;;;;;;5114237;28;20872;-72
2023/12/18 04:21:16;;;;;;;11.27;7.50;;;;;;;;;;5113835;28;20424;-72
2023/12/18 04:23:42;;;;;;;12.00;8.53;;;;;;;;;;5113611;28;20768;-72
2023/12/18 04:26:09;;;;;;;9.27;7.47;;;;;;;;;;5113496;28;20411;-72
2023/12/18 04:28:35;;;;;;;9.60;7.20;;;;;;;;;;5113396;28;20966;-72
2023/12/18 04:31:01;;;;;;;9.40;7.80;;;;;;;;;;5113715;28;20789;-72
2023/12/18 04:33:27;;;;;;;10.90;8.47;;;;;;;;;;5113728;28;20903;-72
2023/12/18 04:35:53;;;;;;;7.63;7.07;;;;;;;;;;5113465;28;20464;-72
2023/12/18 04:38:18;;;;;;;10.43;7.90;;;;;;;;;;5116150;28;20423;-72
2023/12/18 04:40:44;;;;;;;8.90;8.00;;;;;;;;;;5117647;28;20447;-72
2023/12/18 04:43:10;;;;;;;7.97;7.37;;;;;;;;;;5117609;28;20412;-73
2023/12/18 04:45:36;;;;;;;10.00;7.43;;;;;;;;;;5117462;28;20424;-72
2023/12/18 04:48:02;;;;;;;7.77;6.97;;;;;;;;;;5117754;28;20471;-71
2023/12/18 04:50:28;;;;;;;7.47;6.93;;;;;;;;;;5118043;28;20445;-72
2023/12/18 04:52:54;;;;;;;7.87;7.20;;;;;;;;;;5117486;28;20535;-72
2023/12/18 04:55:20;;;;;;;11.13;7.90;;;;;;;;;;5117430;28;20415;-72
2023/12/18 04:57:46;;;;;;;8.70;6.80;;;;;;;;;;5117374;28;20411;-72
2023/12/18 05:03:15;;;;;;;7.90;6.77;;;;;;;;;;5116937;28;20439;-72
2023/12/18 05:05:41;;;;;;;7.20;6.57;;;;;;;;;;5117521;28;20494;-73
2023/12/18 05:08:07;;;;;;;7.37;6.60;;;;;;;;;;5117309;28;20475;-72
2023/12/18 05:10:33;;;;;;;7.53;6.93;;;;;;;;;;5117114;28;20408;-72
2023/12/18 05:12:59;;;;;;;7.30;6.30;;;;;;;;;;5117663;28;20426;-72
2023/12/18 05:15:25;;;;;;;11.47;7.87;;;;;;;;;;5117059;28;20439;-71
2023/12/18 05:17:51;;;;;;;9.87;7.40;;;;;;;;;;5117273;28;20423;-72
2023/12/18 05:23:21;;;;;;;8.20;7.40;;;;;;;;;;5116876;28;20742;-72
2023/12/18 05:25:46;;;;;;;14.80;8.27;;;;;;;;;;5116953;28;20415;-71
2023/12/18 05:28:12;;;;;;;12.43;9.23;;;;;;;;;;5116922;28;20550;-72
2023/12/18 05:30:38;;;;;;;8.70;7.77;;;;;;;;;;5116704;28;20834;-72
2023/12/18 05:33:05;;;;;;;9.00;7.60;;;;;;;;;;5116858;28;20495;-71
2023/12/18 05:35:31;;;;;;;8.10;7.23;;;;;;;;;;5116554;28;20411;-72
2023/12/18 05:37:56;;;;;;;8.50;7.70;;;;;;;;;;5116740;28;20419;-72
2023/12/18 05:40:22;;;;;;;9.63;7.63;;;;;;;;;;5115239;28;20407;-72
2023/12/18 05:42:48;;;;;;;8.40;7.50;;;;;;;;;;5115075;28;20423;-71
2023/12/18 05:45:14;;;;;;;9.60;7.03;;;;;;;;;;5116741;28;20761;-72
2023/12/18 05:47:40;;;;;;;10.50;7.60;;;;;;;;;;5116311;28;20463;-72
2023/12/18 05:50:06;;;;;;;9.80;7.57;;;;;;;;;;5114880;28;20424;-72
2023/12/18 05:52:32;;;;;;;9.87;8.00;;;;;;;;;;5116206;28;20472;-72
2023/12/18 05:54:58;;;;;;;7.80;6.53;;;;;;;;;;5116256;28;20817;-72
2023/12/18 05:57:24;;;;;;;8.47;7.77;;;;;;;;;;5116239;28;20412;-72
2023/12/18 05:59:50;;;;;;;8.27;7.47;;;;;;;;;;5116444;28;20412;-72
2023/12/18 06:02:16;;;;;;;8.03;7.20;;;;;;;;;;5116255;28;20502;-72
2023/12/18 06:04:43;;;;;;;7.30;6.60;;;;;;;;;;5114544;28;20475;-72
2023/12/18 06:07:10;;;;;;;7.90;7.20;;;;;;;;;;5116017;28;20404;-72
2023/12/18 06:09:36;;;;;;;8.50;7.07;;;;;;;;;;5116328;28;20465;-72
2023/12/18 06:12:02;;;;;;;7.80;6.60;;;;;;;;;;5115712;28;20418;-72
2023/12/18 06:14:27;;;;;;;7.63;6.97;;;;;;;;;;5116169;28;20408;-72
2023/12/18 06:16:53;;;;;;;7.57;6.50;;;;;;;;;;5116171;28;20400;-72
2023/12/18 06:19:19;;;;;;;8.67;7.77;;;;;;;;;;5115924;28;20442;-72
2023/12/18 06:21:45;;;;;;;8.03;7.20;;;;;;;;;;5115737;28;20847;-72
2023/12/18 06:24:11;;;;;;;6.73;6.20;;;;;;;;;;5115518;28;20412;-72
2023/12/18 06:26:37;;;;;;;7.37;6.80;;;;;;;;;;5115592;28;20415;-72
2023/12/18 06:29:03;;;;;;;9.37;8.13;;;;;;;;;;5115829;28;20967;-72
2023/12/18 06:31:29;;;;;;;10.07;8.10;;;;;;;;;;5115818;28;20876;-72
2023/12/18 06:33:55;;;;;;;6.83;6.23;;;;;;;;;;5114066;28;20528;-73
2023/12/18 06:36:21;;;;;;;13.20;9.50;;;;;;;;;;5115309;28;20416;-72
2023/12/18 06:38:47;;;;;;;7.57;6.90;;;;;;;;;;5115531;28;20423;-73
2023/12/18 06:41:13;;;;;;;9.03;6.27;;;;;;;;;;5115282;28;20531;-73
2023/12/18 06:43:39;;;;;;;12.07;7.40;;;;;;;;;;5115443;28;20523;-73
2023/12/18 06:46:06;;;;;;;9.23;8.30;;;;;;;;;;5115342;28;20415;-72
2023/12/18 06:48:32;;;;;;;8.97;7.40;;;;;;;;;;5114834;28;20463;-72
2023/12/18 06:50:58;;;;;;;9.00;7.07;;;;;;;;;;5114930;28;20446;-71
2023/12/18 06:53:24;;;;;;;8.87;7.60;;;;;;;;;;5115031;28;20440;-71
2023/12/18 06:55:50;;;;;;;10.83;8.10;;;;;;;;;;5114913;28;20914;-71
2023/12/18 06:58:16;;;;;;;7.07;6.40;;;;;;;;;;5114995;28;20415;-71
2023/12/18 07:00:43;;;;;;;11.50;6.33;;;;;;;;;;5114446;28;20432;-71
2023/12/18 07:03:09;;;;;;;8.90;7.57;;;;;;;;;;5114668;28;20423;-70
2023/12/18 07:05:35;;;;;;;10.40;7.60;;;;;;;;;;5114991;28;20852;-72
2023/12/18 07:08:01;;;;;;;14.47;10.33;;;;;;;;;;5114958;28;20487;-73
2023/12/18 07:10:27;;;;;;;11.50;7.67;;;;;;;;;;5114603;28;20472;-72
2023/12/18 07:12:53;;;;;;;10.43;7.67;;;;;;;;;;5115240;28;20805;-72
2023/12/18 07:15:20;;;;;;;13.87;9.00;;;;;;;;;;5114924;28;20407;-72
2023/12/18 07:17:47;;;;;;;11.70;8.03;;;;;;;;;;5114576;28;20627;-72
2023/12/18 07:20:13;;;;;;;12.23;8.60;;;;;;;;;;5114302;28;20407;-71
2023/12/18 07:22:40;;;;;;;10.57;8.00;;;;;;;;;;5112866;28;20427;-72
2023/12/18 07:25:09;;;;;;;15.20;7.67;;;;;;;;;;5114292;28;20415;-71
2023/12/18 07:27:35;;;;;;;10.80;7.60;;;;;;;;;;5114554;28;20554;-72
2023/12/18 07:30:01;;;;;;;9.90;7.33;;;;;;;;;;5114895;28;20412;-71
2023/12/18 07:32:27;;;;;;;9.37;7.73;;;;;;;;;;5114893;28;20411;-71
2023/12/18 07:34:53;;;;;;;9.70;8.33;;;;;;;;;;5114614;28;20503;-72
2023/12/18 07:37:19;;;;;;;9.27;8.10;;;;;;;;;;5114519;28;20503;-72
2023/12/18 07:39:45;;;;;;;8.33;7.60;;;;;;;;;;5114486;28;20415;-72
2023/12/18 07:42:11;;;;;;;8.90;7.80;;;;;;;;;;5114371;28;20494;-72
2023/12/18 07:44:37;;;;;;;8.70;7.90;;;;;;;;;;5114441;28;20416;-71
2023/12/18 07:47:06;;;;;;;7.83;7.10;;;;;;;;;;5114597;28;20892;-71
2023/12/18 07:49:32;;;;;;;8.33;7.33;;;;;;;;;;5114352;28;20435;-71
2023/12/18 07:51:58;;;;;;;9.53;6.73;;;;;;;;;;5114230;28;20412;-71
2023/12/18 07:54:24;;;;;;;7.37;6.43;;;;;;;;;;5114268;28;20469;-71
2023/12/18 07:56:50;;;;;;;7.80;6.23;;;;;;;;;;5112577;28;20463;-71
2023/12/18 07:59:17;;;;;;;12.10;8.80;;;;;;;;;;5114249;28;20435;-72
2023/12/18 08:01:43;;;;;;;18.40;8.03;;;;;;;;;;5113900;28;20532;-72
2023/12/18 08:04:10;;;;;;;9.47;7.80;;;;;;;;;;5113599;28;20459;-71
2023/12/18 08:06:36;;;;;;;9.47;7.67;;;;;;;;;;5114873;28;20427;-72
2023/12/18 08:09:02;;;;;;;10.53;7.03;;;;;;;;;;5113933;28;20478;-72
2023/12/18 08:11:28;;;;;;;7.70;5.70;;;;;;;;;;5113425;28;20498;-71
2023/12/18 08:13:54;;;;;;;7.13;6.50;;;;;;;;;;5113074;28;20412;-72
2023/12/18 08:16:20;;;;;;;16.40;9.33;;;;;;;;;;5113774;28;20414;-71
2023/12/18 08:18:47;;;;;;;10.77;8.57;;;;;;;;;;5113639;28;20412;-71
2023/12/18 08:21:14;;;;;;;28.60;15.90;;;;;;;;;;5114077;28;20472;-71
2023/12/18 08:23:41;;;;;;;33.20;16.57;;;;;;;;;;5113857;28;20462;-72
2023/12/18 08:26:07;;;;;;;44.10;21.00;;;;;;;;;;5113786;28;20407;-72
2023/12/18 08:28:33;;;;;;;36.10;18.00;;;;;;;;;;5113725;28;20467;-71
2023/12/18 08:30:58;;;;;;;37.93;19.23;;;;;;;;;;5113494;28;20404;-71
2023/12/18 08:33:24;;;;;;;42.53;22.02;;;;;;;;;;5112350;28;20512;-71
2023/12/18 08:35:50;;;;;;;40.20;17.00;;;;;;;;;;5113554;28;20307;-72
2023/12/18 08:38:16;;;;;;;34.73;17.23;;;;;;;;;;5113415;28;20488;-71
2023/12/18 08:40:43;;;;;;;28.73;19.07;;;;;;;;;;5113644;28;20415;-75
2023/12/18 08:43:09;;;;;;;27.57;15.70;;;;;;;;;;5113509;28;20424;-70
2023/12/18 08:45:36;;;;;;;23.10;14.40;;;;;;;;;;5113606;28;20408;-71
2023/12/18 08:48:02;;;;;;;23.53;14.53;;;;;;;;;;5113521;28;20574;-71
2023/12/18 08:50:28;;;;;;;23.60;13.87;;;;;;;;;;5113544;28;20443;-72
2023/12/18 08:52:54;;;;;;;20.17;13.07;;;;;;;;;;5113293;28;20424;-72
2023/12/18 08:55:20;;;;;;;16.53;12.60;;;;;;;;;;5113202;28;20443;-72
2023/12/18 08:57:47;;;;;;;16.10;12.63;;;;;;;;;;5113695;28;20408;-73
2023/12/18 09:03:16;;;;;;;13.77;9.50;;;;;;;;;;5113038;28;20475;-71
2023/12/18 09:05:42;;;;;;;16.00;11.30;;;;;;;;;;5113261;28;20428;-71
2023/12/18 09:08:09;;;;;;;16.63;10.00;;;;;;;;;;5113413;28;20475;-72
2023/12/18 09:10:35;;;;;;;15.30;10.87;;;;;;;;;;5113428;28;20826;-73
2023/12/18 09:13:01;;;;;;;11.23;9.13;;;;;;;;;;5113334;28;20899;-72
2023/12/18 09:15:27;;;;;;;11.33;8.40;;;;;;;;;;5113724;28;20899;-72
2023/12/18 09:17:53;;;;;;;12.80;8.33;;;;;;;;;;5113050;28;20455;-72
2023/12/18 09:20:19;;;;;;;23.10;11.73;;;;;;;;;;5113224;28;20420;-72
2023/12/18 09:22:50;;;;;;;15.33;12.00;;;;;;;;;;5113029;28;20454;-72
2023/12/18 09:25:16;;;;;;;18.23;13.73;;;;;;;;;;5116695;28;20400;-73
2023/12/18 09:27:42;;;;;;;15.17;12.67;;;;;;;;;;5117317;28;20467;-72
2023/12/18 09:30:08;;;;;;;18.93;12.87;;;;;;;;;;5117000;28;20757;-72
2023/12/18 09:32:34;;;;;;;23.40;13.87;;;;;;;;;;5116701;28;20466;-72
2023/12/18 09:35:00;;;;;;;18.07;11.40;;;;;;;;;;5116615;28;20938;-72
2023/12/18 09:37:27;;;;;;;14.90;10.47;;;;;;;;;;5116605;28;20411;-73
2023/12/18 09:39:53;;;;;;;13.90;9.90;;;;;;;;;;5116845;28;20506;-72
2023/12/18 09:42:19;;;;;;;14.83;9.70;;;;;;;;;;5115236;28;20976;-72
2023/12/18 09:44:47;;;;;;;13.37;8.80;;;;;;;;;;5116765;28;20880;-72
2023/12/18 09:47:13;;;;;;;9.33;8.10;;;;;;;;;;5116279;28;20824;-72
2023/12/18 09:49:39;;;;;;;8.73;7.83;;;;;;;;;;5116686;28;20419;-72
2023/12/18 09:52:07;;;;;;;9.17;8.37;;;;;;;;;;5116572;28;20898;-72
2023/12/18 09:54:34;;;;;;;11.40;7.47;;;;;;;;;;5116359;28;20563;-72
2023/12/18 09:57:02;;;;;;;10.47;9.40;;;;;;;;;;5116463;28;20477;-72
2023/12/18 09:59:28;;;;;;;7.83;7.10;;;;;;;;;;5116300;28;20425;-72
2023/12/18 10:01:54;;;;;;;9.30;7.03;;;;;;;;;;5116083;28;20419;-72
2023/12/18 10:04:20;;;;;;;7.70;6.97;;;;;;;;;;5116063;28;20483;-72
2023/12/18 10:06:46;;;;;;;8.67;7.80;;;;;;;;;;5116369;28;20412;-73
2023/12/18 10:09:16;;;;;;;7.93;7.17;;;;;;;;;;5115965;28;20459;-72
2023/12/18 10:11:45;;;;;;;9.73;7.30;;;;;;;;;;5115961;28;20416;-72
2023/12/18 10:14:14;;;;;;;10.63;8.20;;;;;;;;;;5115912;28;20419;-72
2023/12/18 10:16:41;;;;;;;8.80;7.00;;;;;;;;;;5115404;28;20411;-71
2023/12/18 10:19:08;;;;;;;17.97;10.83;;;;;;;;;;5116017;28;20420;-72
2023/12/18 10:21:34;;;;;;;10.13;9.10;;;;;;;;;;5115448;28;20416;-72
2023/12/18 10:24:01;;;;;;;12.50;10.40;;;;;;;;;;5115593;28;20426;-73
2023/12/18 10:26:28;;;;;;;10.23;8.37;;;;;;;;;;5115816;28;20412;-73
2023/12/18 10:28:54;;;;;;;8.60;7.43;;;;;;;;;;5115775;28;20490;-72
2023/12/18 10:31:21;;;;;;;7.43;6.70;;;;;;;;;;5115223;28;20828;-72
2023/12/18 10:33:47;;;;;;;9.27;7.70;;;;;;;;;;5115391;28;20910;-71
2023/12/18 10:36:15;;;;;;;9.60;6.57;;;;;;;;;;5114714;28;20411;-71
2023/12/18 10:38:41;;;;;;;12.40;8.97;;;;;;;;;;5115758;28;20442;-72
2023/12/18 10:41:09;;;;;;;9.63;6.43;;;;;;;;;;5115231;28;20412;-72
2023/12/18 10:43:36;;;;;;;12.53;7.17;;;;;;;;;;5115993;28;20416;-72
2023/12/18 10:46:03;;;;;;;9.03;8.03;;;;;;;;;;5115514;28;20468;-72
2023/12/18 10:48:30;;;;;;;11.43;8.30;;;;;;;;;;5115438;28;20471;-72
2023/12/18 10:50:56;;;;;;;9.73;7.63;;;;;;;;;;5115048;28;20437;-72
2023/12/18 10:53:23;;;;;;;7.03;6.47;;;;;;;;;;5115142;28;20911;-72
2023/12/18 10:55:49;;;;;;;9.00;7.00;;;;;;;;;;5115004;28;20404;-72
2023/12/18 10:58:19;;;;;;;9.90;7.90;;;;;;;;;;5115556;28;20462;-71
2023/12/18 11:00:45;;;;;;;6.83;6.10;;;;;;;;;;5115056;28;20403;-71
2023/12/18 11:03:12;;;;;;;9.40;8.43;;;;;;;;;;5114658;28;20468;-72
2023/12/18 11:05:39;;;;;;;11.17;7.60;;;;;;;;;;5114872;28;20961;-70
2023/12/18 11:08:05;;;;;;;8.63;7.43;;;;;;;;;;5115004;28;20455;-70
2023/12/18 11:10:31;;;;;;;8.13;7.30;;;;;;;;;;5115011;28;20420;-72
2023/12/18 11:13:04;;;;;;;12.70;7.53;;;;;;;;;;5114749;28;20412;-71
2023/12/18 11:15:30;;;;;;;7.70;6.97;;;;;;;;;;5114818;28;20401;-73
2023/12/18 11:18:05;;;;;;;8.33;6.87;;;;;;;;;;5114721;28;20408;-73
2023/12/18 11:20:34;;;;;;;8.70;7.90;;;;;;;;;;5114667;28;20813;-72
2023/12/18 11:23:01;;;;;;;20.60;10.30;;;;;;;;;;5114866;28;20400;-71
2023/12/18 11:25:37;;;;;;;10.40;8.33;;;;;;;;;;5114798;28;20763;-71
2023/12/18 11:28:04;;;;;;;10.30;7.70;;;;;;;;;;5114788;28;20814;-71
2023/12/18 11:30:31;;;;;;;7.00;6.33;;;;;;;;;;5114874;28;20427;-71
2023/12/18 11:32:57;;;;;;;7.23;6.53;;;;;;;;;;5114360;28;20419;-75
2023/12/18 11:35:28;;;;;;;10.43;7.60;;;;;;;;;;5114282;28;20427;-73
2023/12/18 11:37:58;;;;;;;7.73;7.10;;;;;;;;;;5114267;28;20868;-74
2023/12/18 11:40:36;;;;;;;14.83;6.90;;;;;;;;;;5114461;28;20461;-73
2023/12/18 11:43:06;;;;;;;10.13;7.30;;;;;;;;;;5114420;28;20392;-75
2023/12/18 11:45:32;;;;;;;6.93;6.07;;;;;;;;;;5114477;28;20423;-75
2023/12/18 11:47:58;;;;;;;7.80;7.10;;;;;;;;;;5114266;28;20478;-70
2023/12/18 11:53:27;;;;;;;7.30;6.60;;;;;;;;;;5114105;28;20387;-70
2023/12/18 11:55:53;;;;;;;10.17;7.97;;;;;;;;;;5114163;28;20415;-72
2023/12/18 11:58:20;;;;;;;6.47;5.87;;;;;;;;;;5113969;28;20400;-71
2023/12/18 12:00:46;;;;;;;7.27;6.57;;;;;;;;;;5113598;28;20444;-72
2023/12/18 12:03:15;;;;;;;8.60;7.40;;;;;;;;;;5113639;28;20391;-70
2023/12/18 12:05:41;;;;;;;9.63;7.40;;;;;;;;;;5113877;28;20404;-72
2023/12/18 12:08:08;;;;;;;8.80;6.50;;;;;;;;;;5113513;28;20877;-71
2023/12/18 12:10:41;;;;;;;8.90;8.00;;;;;;;;;;5113785;27;20411;-71
2023/12/18 12:13:07;;;;;;;12.50;7.50;;;;;;;;;;5113702;28;20419;-71
2023/12/18 12:15:33;;;;;;;13.73;7.83;;;;;;;;;;5113941;28;20403;-71
2023/12/18 12:18:03;;;;;;;11.70;7.40;;;;;;;;;;5113617;28;20466;-71
2023/12/18 12:20:29;;;;;;;10.03;7.10;;;;;;;;;;5113654;28;20432;-70
2023/12/18 12:22:55;;;;;;;7.40;6.60;;;;;;;;;;5113479;28;20429;-72
2023/12/18 12:25:21;;;;;;;7.17;6.57;;;;;;;;;;5112975;28;20415;-71
2023/12/18 12:27:47;;;;;;;6.77;6.17;;;;;;;;;;5113725;28;20545;-73
2023/12/18 12:33:16;;;;;;;8.20;6.00;;;;;;;;;;5113510;28;20457;-73
2023/12/18 12:35:42;;;;;;;7.90;6.40;;;;;;;;;;5113515;28;20404;-73
2023/12/18 12:38:08;;;;;;;8.40;6.17;;;;;;;;;;5113377;28;20423;-73
2023/12/18 12:40:38;;;;;;;6.23;5.83;;;;;;;;;;5113525;28;20400;-72
2023/12/18 12:43:05;;;;;;;6.83;6.03;;;;;;;;;;5113421;28;20423;-72
2023/12/18 12:45:31;;;;;;;6.03;5.63;;;;;;;;;;5113642;28;20500;-72
2023/12/18 12:47:57;;;;;;;10.53;6.13;;;;;;;;;;5113239;28;20509;-70
2023/12/18 12:50:23;;;;;;;8.30;6.70;;;;;;;;;;5113403;28;20484;-70
2023/12/18 12:52:50;;;;;;;6.17;5.67;;;;;;;;;;5113000;28;20447;-70
2023/12/18 12:55:16;;;;;;;5.83;5.33;;;;;;;;;;5113810;28;20499;-70
2023/12/18 12:57:42;;;;;;;6.30;5.70;;;;;;;;;;5113337;28;20954;-70
2023/12/18 13:00:09;;;;;;;5.50;5.00;;;;;;;;;;5117142;28;20428;-70
2023/12/18 13:02:35;;;;;;;7.60;6.10;;;;;;;;;;5117375;28;20911;-71
2023/12/18 13:05:01;;;;;;;9.47;7.23;;;;;;;;;;5117127;28;20474;-70
2023/12/18 13:07:27;;;;;;;10.30;5.90;;;;;;;;;;5117244;28;20423;-71
2023/12/18 13:09:53;;;;;;;6.33;5.80;;;;;;;;;;5115749;28;20432;-71
2023/12/18 13:12:19;;;;;;;7.03;6.33;;;;;;;;;;5117036;28;20762;-70
2023/12/18 13:14:46;;;;;;;6.93;6.33;;;;;;;;;;5117358;28;20773;-71
2023/12/18 13:17:12;;;;;;;8.20;6.70;;;;;;;;;;5116999;28;20403;-70
2023/12/18 13:19:39;;;;;;;6.73;6.00;;;;;;;;;;5117250;28;20768;-70
2023/12/18 13:22:05;;;;;;;4.97;4.67;;;;;;;;;;5116779;28;20775;-69
2023/12/18 13:24:32;;;;;;;18.13;6.20;;;;;;;;;;5117174;28;20424;-70
2023/12/18 13:26:58;;;;;;;5.20;4.90;;;;;;;;;;5116839;28;20416;-71
2023/12/18 13:29:24;;;;;;;11.33;6.10;;;;;;;;;;5116549;28;20493;-70
2023/12/18 13:31:50;;;;;;;14.97;6.50;;;;;;;;;;5116708;28;20411;-69
2023/12/18 13:34:16;;;;;;;7.33;6.63;;;;;;;;;;5116124;28;20921;-72
2023/12/18 13:36:42;;;;;;;10.37;6.97;;;;;;;;;;5116955;28;20502;-70
2023/12/18 13:39:10;;;;;;;8.30;7.03;;;;;;;;;;5116579;28;20964;-70
2023/12/18 13:41:36;;;;;;;8.20;5.40;;;;;;;;;;5116610;28;20411;-70
2023/12/18 13:44:03;;;;;;;6.60;5.77;;;;;;;;;;5116686;28;20480;-70
2023/12/18 13:46:29;;;;;;;5.93;5.50;;;;;;;;;;5116720;28;20418;-72
2023/12/18 13:48:55;;;;;;;9.10;6.70;;;;;;;;;;5116339;28;20463;-73
2023/12/18 13:51:21;;;;;;;5.97;5.30;;;;;;;;;;5116349;28;20416;-73
2023/12/18 13:53:47;;;;;;;8.10;7.20;;;;;;;;;;5116494;28;20423;-72
2023/12/18 13:56:13;;;;;;;6.97;6.30;;;;;;;;;;5116210;28;20995;-71
2023/12/18 13:58:42;;;;;;;7.77;6.80;;;;;;;;;;5116502;28;20411;-73
2023/12/18 14:01:08;;;;;;;6.03;5.47;;;;;;;;;;5116442;28;20457;-72
2023/12/18 14:03:34;;;;;;;6.70;6.00;;;;;;;;;;5115875;28;20538;-73
2023/12/18 14:06:03;;;;;;;8.20;6.63;;;;;;;;;;5116311;28;20404;-70
2023/12/18 14:08:29;;;;;;;12.03;7.07;;;;;;;;;;5116229;27;20605;-70
2023/12/18 14:10:57;;;;;;;10.83;6.43;;;;;;;;;;5114668;28;20453;-69
2023/12/18 14:13:23;;;;;;;6.67;5.93;;;;;;;;;;5115944;28;20439;-70
2023/12/18 14:15:48;;;;;;;6.43;5.83;;;;;;;;;;5115861;28;20884;-69
2023/12/18 14:18:15;;;;;;;6.63;5.50;;;;;;;;;;5115774;28;20859;-70
2023/12/18 14:20:41;;;;;;;19.63;6.43;;;;;;;;;;5115819;28;20481;-70
2023/12/18 14:23:07;;;;;;;5.77;5.27;;;;;;;;;;5115595;28;20561;-69
2023/12/18 14:25:33;;;;;;;7.47;5.77;;;;;;;;;;5115973;28;20490;-69
2023/12/18 14:27:59;;;;;;;9.87;6.87;;;;;;;;;;5115583;28;20547;-70
2023/12/18 14:30:26;;;;;;;6.93;6.27;;;;;;;;;;5115822;28;20907;-70
2023/12/18 14:32:52;;;;;;;7.27;6.30;;;;;;;;;;5116075;28;20416;-69
2023/12/18 14:35:19;;;;;;;18.87;7.57;;;;;;;;;;5115454;28;20473;-69
2023/12/18 14:37:45;;;;;;;15.90;6.23;;;;;;;;;;5115625;28;20467;-69
2023/12/18 14:40:11;;;;;;;9.83;4.90;;;;;;;;;;5115466;28;20424;-69
2023/12/18 14:42:37;;;;;;;8.47;5.37;;;;;;;;;;5115327;28;20457;-70
2023/12/18 14:45:03;;;;;;;9.83;5.70;;;;;;;;;;5115202;28;20467;-70